sensor_id;sensor_type;location;lat;lon;timestamp;P1;durP1;ratioP1;P2;durP2;ratioP2
68700;SDS011;55682;51.114;5.882;2023-04-25T00:00:44;5.71;;;5.53;;
68700;SDS011;55682;51.114;5.882;2023-04-25T00:03:10;5.94;;;5.73;;
68700;SDS011;55682;51.114;5.882;2023-04-25T00:05:36;5.70;;;5.54;;
68700;SDS011;55682;51.114;5.882;2023-04-25T00:08:03;5.41;;;5.33;;
68700;SDS011;55682;51.114;5.882;2023-04-25T00:10:29;5.71;;;5.48;;
68700;SDS011;55682;51.114;5.882;2023-04-25T00:12:55;5.78;;;5.58;;
68700;SDS011;55682;51.114;5.882;2023-04-25T00:15:22;5.95;;;5.75;;
68700;SDS011;55682;51.114;5.882;2023-04-25T00:17:49;5.64;;;5.56;;
68700;SDS011;55682;51.114;5.882;2023-04-25T00:20:15;5.76;;;5.66;;
68700;SDS011;55682;51.114;5.882;2023-04-25T00:22:40;5.47;;;5.36;;
68700;SDS011;55682;51.114;5.882;2023-04-25T00:25:06;5.56;;;5.46;;
68700;SDS011;55682;51.114;5.882;2023-04-25T00:27:32;5.64;;;5.46;;
68700;SDS011;55682;51.114;5.882;2023-04-25T00:29:58;5.34;;;5.30;;
68700;SDS011;55682;51.114;5.882;2023-04-25T00:32:24;5.59;;;5.53;;
68700;SDS011;55682;51.114;5.882;2023-04-25T00:34:50;5.40;;;5.31;;
68700;SDS011;55682;51.114;5.882;2023-04-25T00:37:15;5.86;;;5.71;;
68700;SDS011;55682;51.114;5.882;2023-04-25T00:39:41;5.74;;;5.62;;
68700;SDS011;55682;51.114;5.882;2023-04-25T00:42:07;5.77;;;5.62;;
68700;SDS011;55682;51.114;5.882;2023-04-25T00:44:33;6.24;;;5.96;;
68700;SDS011;55682;51.114;5.882;2023-04-25T00:47:01;5.66;;;5.49;;
68700;SDS011;55682;51.114;5.882;2023-04-25T00:49:28;5.59;;;5.51;;
68700;SDS011;55682;51.114;5.882;2023-04-25T00:51:54;5.83;;;5.69;;
68700;SDS011;55682;51.114;5.882;2023-04-25T00:54:21;5.86;;;5.70;;
68700;SDS011;55682;51.114;5.882;2023-04-25T00:56:47;5.87;;;5.62;;
68700;SDS011;55682;51.114;5.882;2023-04-25T00:59:14;6.00;;;5.78;;
68700;SDS011;55682;51.114;5.882;2023-04-25T01:01:40;6.08;;;5.95;;
68700;SDS011;55682;51.114;5.882;2023-04-25T01:04:07;6.05;;;5.91;;
68700;SDS011;55682;51.114;5.882;2023-04-25T01:06:32;6.06;;;5.95;;
68700;SDS011;55682;51.114;5.882;2023-04-25T01:08:58;6.37;;;6.17;;
68700;SDS011;55682;51.114;5.882;2023-04-25T01:11:24;6.48;;;6.27;;
68700;SDS011;55682;51.114;5.882;2023-04-25T01:13:50;6.16;;;6.00;;
68700;SDS011;55682;51.114;5.882;2023-04-25T01:16:16;6.43;;;6.17;;
68700;SDS011;55682;51.114;5.882;2023-04-25T01:18:41;6.35;;;6.12;;
68700;SDS011;55682;51.114;5.882;2023-04-25T01:21:09;6.68;;;6.43;;
68700;SDS011;55682;51.114;5.882;2023-04-25T01:23:38;6.38;;;6.15;;
68700;SDS011;55682;51.114;5.882;2023-04-25T01:26:06;5.92;;;5.80;;
68700;SDS011;55682;51.114;5.882;2023-04-25T01:28:34;6.11;;;5.98;;
68700;SDS011;55682;51.114;5.882;2023-04-25T01:31:00;6.51;;;6.37;;
68700;SDS011;55682;51.114;5.882;2023-04-25T01:33:27;5.95;;;5.84;;
68700;SDS011;55682;51.114;5.882;2023-04-25T01:35:53;6.53;;;6.38;;
68700;SDS011;55682;51.114;5.882;2023-04-25T01:38:19;6.20;;;5.96;;
68700;SDS011;55682;51.114;5.882;2023-04-25T01:40:45;5.99;;;5.86;;
68700;SDS011;55682;51.114;5.882;2023-04-25T01:43:12;6.22;;;6.08;;
68700;SDS011;55682;51.114;5.882;2023-04-25T01:45:39;6.22;;;6.07;;
68700;SDS011;55682;51.114;5.882;2023-04-25T01:48:08;6.56;;;6.34;;
68700;SDS011;55682;51.114;5.882;2023-04-25T01:50:35;6.50;;;6.28;;
68700;SDS011;55682;51.114;5.882;2023-04-25T01:53:02;6.53;;;6.28;;
68700;SDS011;55682;51.114;5.882;2023-04-25T01:55:28;6.26;;;6.13;;
68700;SDS011;55682;51.114;5.882;2023-04-25T01:58:02;5.98;;;5.87;;
68700;SDS011;55682;51.114;5.882;2023-04-25T02:00:52;6.36;;;6.16;;
68700;SDS011;55682;51.114;5.882;2023-04-25T02:03:17;6.21;;;6.00;;
68700;SDS011;55682;51.114;5.882;2023-04-25T02:05:43;6.63;;;6.35;;
68700;SDS011;55682;51.114;5.882;2023-04-25T02:08:11;7.07;;;6.59;;
68700;SDS011;55682;51.114;5.882;2023-04-25T02:10:37;6.64;;;6.22;;
68700;SDS011;55682;51.114;5.882;2023-04-25T02:13:09;6.18;;;5.95;;
68700;SDS011;55682;51.114;5.882;2023-04-25T02:15:48;5.72;;;5.61;;
68700;SDS011;55682;51.114;5.882;2023-04-25T02:18:16;6.17;;;6.09;;
68700;SDS011;55682;51.114;5.882;2023-04-25T02:20:42;5.92;;;5.76;;
68700;SDS011;55682;51.114;5.882;2023-04-25T02:23:08;5.76;;;5.60;;
68700;SDS011;55682;51.114;5.882;2023-04-25T02:25:34;5.43;;;5.37;;
68700;SDS011;55682;51.114;5.882;2023-04-25T02:28:00;5.96;;;5.86;;
68700;SDS011;55682;51.114;5.882;2023-04-25T02:30:25;5.70;;;5.55;;
68700;SDS011;55682;51.114;5.882;2023-04-25T02:32:51;5.97;;;5.77;;
68700;SDS011;55682;51.114;5.882;2023-04-25T02:35:17;6.29;;;6.05;;
68700;SDS011;55682;51.114;5.882;2023-04-25T02:37:42;5.90;;;5.68;;
68700;SDS011;55682;51.114;5.882;2023-04-25T02:40:08;5.81;;;5.59;;
68700;SDS011;55682;51.114;5.882;2023-04-25T02:42:35;6.01;;;5.84;;
68700;SDS011;55682;51.114;5.882;2023-04-25T02:45:01;6.27;;;6.01;;
68700;SDS011;55682;51.114;5.882;2023-04-25T02:47:27;6.65;;;6.21;;
68700;SDS011;55682;51.114;5.882;2023-04-25T02:49:53;6.18;;;5.85;;
68700;SDS011;55682;51.114;5.882;2023-04-25T02:52:19;6.00;;;5.82;;
68700;SDS011;55682;51.114;5.882;2023-04-25T02:54:51;5.61;;;5.45;;
68700;SDS011;55682;51.114;5.882;2023-04-25T02:57:16;5.78;;;5.54;;
68700;SDS011;55682;51.114;5.882;2023-04-25T02:59:42;6.38;;;6.03;;
68700;SDS011;55682;51.114;5.882;2023-04-25T03:02:09;6.66;;;6.15;;
68700;SDS011;55682;51.114;5.882;2023-04-25T03:04:35;6.42;;;5.99;;
68700;SDS011;55682;51.114;5.882;2023-04-25T03:07:00;6.92;;;6.46;;
68700;SDS011;55682;51.114;5.882;2023-04-25T03:09:26;6.33;;;5.98;;
68700;SDS011;55682;51.114;5.882;2023-04-25T03:11:52;6.41;;;6.02;;
68700;SDS011;55682;51.114;5.882;2023-04-25T03:14:18;5.95;;;5.62;;
68700;SDS011;55682;51.114;5.882;2023-04-25T03:16:44;6.25;;;5.97;;
68700;SDS011;55682;51.114;5.882;2023-04-25T03:19:10;6.00;;;5.75;;
68700;SDS011;55682;51.114;5.882;2023-04-25T03:21:36;6.33;;;6.05;;
68700;SDS011;55682;51.114;5.882;2023-04-25T03:24:03;6.84;;;6.47;;
68700;SDS011;55682;51.114;5.882;2023-04-25T03:26:30;6.53;;;6.09;;
68700;SDS011;55682;51.114;5.882;2023-04-25T03:28:56;6.77;;;6.31;;
68700;SDS011;55682;51.114;5.882;2023-04-25T03:31:21;7.22;;;6.56;;
68700;SDS011;55682;51.114;5.882;2023-04-25T03:33:47;6.69;;;6.26;;
68700;SDS011;55682;51.114;5.882;2023-04-25T03:36:13;6.49;;;6.15;;
68700;SDS011;55682;51.114;5.882;2023-04-25T03:38:39;6.21;;;5.91;;
68700;SDS011;55682;51.114;5.882;2023-04-25T03:41:07;6.37;;;6.02;;
68700;SDS011;55682;51.114;5.882;2023-04-25T03:43:40;6.39;;;6.10;;
68700;SDS011;55682;51.114;5.882;2023-04-25T03:46:10;6.12;;;5.84;;
68700;SDS011;55682;51.114;5.882;2023-04-25T03:48:36;6.16;;;5.88;;
68700;SDS011;55682;51.114;5.882;2023-04-25T03:51:02;6.19;;;5.93;;
68700;SDS011;55682;51.114;5.882;2023-04-25T03:53:29;6.33;;;6.07;;
68700;SDS011;55682;51.114;5.882;2023-04-25T03:56:15;6.55;;;6.21;;
68700;SDS011;55682;51.114;5.882;2023-04-25T03:58:42;6.09;;;5.75;;
68700;SDS011;55682;51.114;5.882;2023-04-25T04:01:08;6.12;;;5.78;;
68700;SDS011;55682;51.114;5.882;2023-04-25T04:03:37;6.31;;;5.99;;
68700;SDS011;55682;51.114;5.882;2023-04-25T04:06:03;6.17;;;5.90;;
68700;SDS011;55682;51.114;5.882;2023-04-25T04:08:32;6.23;;;5.91;;
68700;SDS011;55682;51.114;5.882;2023-04-25T04:10:58;6.48;;;6.14;;
68700;SDS011;55682;51.114;5.882;2023-04-25T04:13:28;6.56;;;6.17;;
68700;SDS011;55682;51.114;5.882;2023-04-25T04:15:55;6.50;;;6.12;;
68700;SDS011;55682;51.114;5.882;2023-04-25T04:18:22;5.87;;;5.61;;
68700;SDS011;55682;51.114;5.882;2023-04-25T04:20:47;5.82;;;5.62;;
68700;SDS011;55682;51.114;5.882;2023-04-25T04:23:13;6.40;;;6.21;;
68700;SDS011;55682;51.114;5.882;2023-04-25T04:25:39;5.59;;;5.48;;
68700;SDS011;55682;51.114;5.882;2023-04-25T04:28:23;6.11;;;5.87;;
68700;SDS011;55682;51.114;5.882;2023-04-25T04:31:04;6.19;;;5.92;;
68700;SDS011;55682;51.114;5.882;2023-04-25T04:33:30;6.60;;;6.21;;
68700;SDS011;55682;51.114;5.882;2023-04-25T04:36:00;6.71;;;6.33;;
68700;SDS011;55682;51.114;5.882;2023-04-25T04:38:26;6.38;;;6.01;;
68700;SDS011;55682;51.114;5.882;2023-04-25T04:40:55;5.68;;;5.42;;
68700;SDS011;55682;51.114;5.882;2023-04-25T04:43:59;6.15;;;5.89;;
68700;SDS011;55682;51.114;5.882;2023-04-25T04:46:36;5.85;;;5.70;;
68700;SDS011;55682;51.114;5.882;2023-04-25T04:49:33;6.02;;;5.68;;
68700;SDS011;55682;51.114;5.882;2023-04-25T04:52:24;5.71;;;5.36;;
68700;SDS011;55682;51.114;5.882;2023-04-25T04:55:22;5.96;;;5.64;;
68700;SDS011;55682;51.114;5.882;2023-04-25T04:58:10;5.83;;;5.66;;
68700;SDS011;55682;51.114;5.882;2023-04-25T05:00:56;5.66;;;5.41;;
68700;SDS011;55682;51.114;5.882;2023-04-25T05:03:40;5.94;;;5.58;;
68700;SDS011;55682;51.114;5.882;2023-04-25T05:06:26;5.83;;;5.58;;
68700;SDS011;55682;51.114;5.882;2023-04-25T05:09:14;5.64;;;5.36;;
68700;SDS011;55682;51.114;5.882;2023-04-25T05:12:01;5.59;;;5.34;;
68700;SDS011;55682;51.114;5.882;2023-04-25T05:14:47;5.37;;;5.15;;
68700;SDS011;55682;51.114;5.882;2023-04-25T05:17:31;5.50;;;5.13;;
68700;SDS011;55682;51.114;5.882;2023-04-25T05:20:09;5.68;;;5.34;;
68700;SDS011;55682;51.114;5.882;2023-04-25T05:22:54;5.16;;;4.91;;
68700;SDS011;55682;51.114;5.882;2023-04-25T05:25:32;5.37;;;5.06;;
68700;SDS011;55682;51.114;5.882;2023-04-25T05:28:14;5.07;;;4.74;;
68700;SDS011;55682;51.114;5.882;2023-04-25T05:30:39;5.48;;;5.05;;
68700;SDS011;55682;51.114;5.882;2023-04-25T05:33:27;5.64;;;5.21;;
68700;SDS011;55682;51.114;5.882;2023-04-25T05:35:52;5.05;;;4.82;;
68700;SDS011;55682;51.114;5.882;2023-04-25T05:38:18;5.04;;;4.80;;
68700;SDS011;55682;51.114;5.882;2023-04-25T05:41:02;5.34;;;4.99;;
68700;SDS011;55682;51.114;5.882;2023-04-25T05:43:43;5.51;;;5.00;;
68700;SDS011;55682;51.114;5.882;2023-04-25T05:46:35;5.68;;;5.07;;
68700;SDS011;55682;51.114;5.882;2023-04-25T05:49:12;5.23;;;4.81;;
68700;SDS011;55682;51.114;5.882;2023-04-25T05:51:52;5.66;;;5.20;;
68700;SDS011;55682;51.114;5.882;2023-04-25T05:54:36;5.06;;;4.80;;
68700;SDS011;55682;51.114;5.882;2023-04-25T05:57:03;5.33;;;5.06;;
68700;SDS011;55682;51.114;5.882;2023-04-25T05:59:29;5.20;;;4.82;;
68700;SDS011;55682;51.114;5.882;2023-04-25T06:01:54;5.61;;;5.16;;
68700;SDS011;55682;51.114;5.882;2023-04-25T06:04:21;5.75;;;5.34;;
68700;SDS011;55682;51.114;5.882;2023-04-25T06:06:46;5.80;;;5.47;;
68700;SDS011;55682;51.114;5.882;2023-04-25T06:09:12;6.10;;;5.78;;
68700;SDS011;55682;51.114;5.882;2023-04-25T06:11:38;6.17;;;5.88;;
68700;SDS011;55682;51.114;5.882;2023-04-25T06:14:04;6.08;;;5.71;;
68700;SDS011;55682;51.114;5.882;2023-04-25T06:16:32;6.53;;;5.97;;
68700;SDS011;55682;51.114;5.882;2023-04-25T06:18:57;6.17;;;5.75;;
68700;SDS011;55682;51.114;5.882;2023-04-25T06:21:23;5.87;;;5.52;;
68700;SDS011;55682;51.114;5.882;2023-04-25T06:23:50;5.66;;;5.42;;
68700;SDS011;55682;51.114;5.882;2023-04-25T06:26:19;5.84;;;5.51;;
68700;SDS011;55682;51.114;5.882;2023-04-25T06:28:46;6.01;;;5.64;;
68700;SDS011;55682;51.114;5.882;2023-04-25T06:31:12;5.69;;;5.43;;
68700;SDS011;55682;51.114;5.882;2023-04-25T06:33:39;5.63;;;5.24;;
68700;SDS011;55682;51.114;5.882;2023-04-25T06:36:04;5.43;;;5.06;;
68700;SDS011;55682;51.114;5.882;2023-04-25T06:38:31;5.72;;;5.44;;
68700;SDS011;55682;51.114;5.882;2023-04-25T06:40:57;5.84;;;5.39;;
68700;SDS011;55682;51.114;5.882;2023-04-25T06:43:23;4.99;;;4.68;;
68700;SDS011;55682;51.114;5.882;2023-04-25T06:46:01;4.91;;;4.59;;
68700;SDS011;55682;51.114;5.882;2023-04-25T06:48:29;4.81;;;4.34;;
68700;SDS011;55682;51.114;5.882;2023-04-25T06:50:54;4.83;;;4.35;;
68700;SDS011;55682;51.114;5.882;2023-04-25T06:53:22;4.87;;;4.41;;
68700;SDS011;55682;51.114;5.882;2023-04-25T06:55:53;4.43;;;4.12;;
68700;SDS011;55682;51.114;5.882;2023-04-25T06:58:21;4.59;;;4.27;;
68700;SDS011;55682;51.114;5.882;2023-04-25T07:01:06;4.44;;;4.08;;
68700;SDS011;55682;51.114;5.882;2023-04-25T07:03:32;4.29;;;4.03;;
68700;SDS011;55682;51.114;5.882;2023-04-25T07:06:05;4.34;;;4.06;;
68700;SDS011;55682;51.114;5.882;2023-04-25T07:08:31;4.02;;;3.71;;
68700;SDS011;55682;51.114;5.882;2023-04-25T07:10:57;3.44;;;3.25;;
68700;SDS011;55682;51.114;5.882;2023-04-25T07:13:23;3.60;;;3.36;;
68700;SDS011;55682;51.114;5.882;2023-04-25T07:15:49;3.65;;;3.40;;
68700;SDS011;55682;51.114;5.882;2023-04-25T07:18:17;3.52;;;3.28;;
68700;SDS011;55682;51.114;5.882;2023-04-25T07:20:43;3.68;;;3.38;;
68700;SDS011;55682;51.114;5.882;2023-04-25T07:23:08;3.54;;;3.29;;
68700;SDS011;55682;51.114;5.882;2023-04-25T07:25:34;3.60;;;3.30;;
68700;SDS011;55682;51.114;5.882;2023-04-25T07:28:01;3.53;;;3.22;;
68700;SDS011;55682;51.114;5.882;2023-04-25T07:30:26;3.43;;;3.09;;
68700;SDS011;55682;51.114;5.882;2023-04-25T07:32:53;3.56;;;3.22;;
68700;SDS011;55682;51.114;5.882;2023-04-25T07:35:19;3.75;;;3.42;;
68700;SDS011;55682;51.114;5.882;2023-04-25T07:37:44;3.38;;;3.10;;
68700;SDS011;55682;51.114;5.882;2023-04-25T07:40:14;3.69;;;3.37;;
68700;SDS011;55682;51.114;5.882;2023-04-25T07:42:45;3.67;;;3.35;;
68700;SDS011;55682;51.114;5.882;2023-04-25T07:45:14;3.82;;;3.48;;
68700;SDS011;55682;51.114;5.882;2023-04-25T07:47:40;3.68;;;3.38;;
68700;SDS011;55682;51.114;5.882;2023-04-25T07:50:07;3.24;;;3.07;;
68700;SDS011;55682;51.114;5.882;2023-04-25T07:52:33;3.04;;;2.85;;
68700;SDS011;55682;51.114;5.882;2023-04-25T07:55:06;3.22;;;3.02;;
68700;SDS011;55682;51.114;5.882;2023-04-25T07:57:54;3.89;;;3.54;;
68700;SDS011;55682;51.114;5.882;2023-04-25T08:00:20;3.93;;;3.59;;
68700;SDS011;55682;51.114;5.882;2023-04-25T08:02:52;3.28;;;3.06;;
68700;SDS011;55682;51.114;5.882;2023-04-25T08:05:18;2.90;;;2.69;;
68700;SDS011;55682;51.114;5.882;2023-04-25T08:07:49;3.06;;;2.84;;
68700;SDS011;55682;51.114;5.882;2023-04-25T08:10:15;2.65;;;2.48;;
68700;SDS011;55682;51.114;5.882;2023-04-25T08:12:42;2.96;;;2.76;;
68700;SDS011;55682;51.114;5.882;2023-04-25T08:15:09;3.05;;;2.82;;
68700;SDS011;55682;51.114;5.882;2023-04-25T08:17:37;3.58;;;3.24;;
68700;SDS011;55682;51.114;5.882;2023-04-25T08:20:03;3.09;;;2.83;;
68700;SDS011;55682;51.114;5.882;2023-04-25T08:22:31;3.44;;;3.14;;
68700;SDS011;55682;51.114;5.882;2023-04-25T08:25:16;3.32;;;3.04;;
68700;SDS011;55682;51.114;5.882;2023-04-25T08:27:42;3.14;;;2.88;;
68700;SDS011;55682;51.114;5.882;2023-04-25T08:30:08;3.25;;;3.02;;
68700;SDS011;55682;51.114;5.882;2023-04-25T08:32:34;2.80;;;2.65;;
68700;SDS011;55682;51.114;5.882;2023-04-25T08:35:28;2.95;;;2.74;;
68700;SDS011;55682;51.114;5.882;2023-04-25T08:37:54;3.01;;;2.77;;
68700;SDS011;55682;51.114;5.882;2023-04-25T08:40:20;2.85;;;2.67;;
68700;SDS011;55682;51.114;5.882;2023-04-25T08:42:56;2.42;;;2.27;;
68700;SDS011;55682;51.114;5.882;2023-04-25T08:45:24;2.45;;;2.33;;
68700;SDS011;55682;51.114;5.882;2023-04-25T08:47:53;2.48;;;2.33;;
68700;SDS011;55682;51.114;5.882;2023-04-25T08:50:21;3.02;;;2.80;;
68700;SDS011;55682;51.114;5.882;2023-04-25T08:52:50;2.95;;;2.70;;
68700;SDS011;55682;51.114;5.882;2023-04-25T08:55:18;2.96;;;2.71;;
68700;SDS011;55682;51.114;5.882;2023-04-25T08:57:49;2.48;;;2.32;;
68700;SDS011;55682;51.114;5.882;2023-04-25T09:00:16;2.38;;;2.23;;
68700;SDS011;55682;51.114;5.882;2023-04-25T09:02:43;2.76;;;2.58;;
68700;SDS011;55682;51.114;5.882;2023-04-25T09:05:09;2.75;;;2.56;;
68700;SDS011;55682;51.114;5.882;2023-04-25T09:07:38;2.69;;;2.50;;
68700;SDS011;55682;51.114;5.882;2023-04-25T09:10:05;3.04;;;2.81;;
68700;SDS011;55682;51.114;5.882;2023-04-25T09:12:34;3.09;;;2.83;;
68700;SDS011;55682;51.114;5.882;2023-04-25T09:15:07;2.88;;;2.70;;
68700;SDS011;55682;51.114;5.882;2023-04-25T09:18:05;2.46;;;2.31;;
68700;SDS011;55682;51.114;5.882;2023-04-25T09:20:41;2.10;;;1.98;;
68700;SDS011;55682;51.114;5.882;2023-04-25T09:23:08;2.21;;;2.07;;
68700;SDS011;55682;51.114;5.882;2023-04-25T09:25:36;2.12;;;1.99;;
68700;SDS011;55682;51.114;5.882;2023-04-25T09:28:06;2.38;;;2.19;;
68700;SDS011;55682;51.114;5.882;2023-04-25T09:30:33;2.46;;;2.23;;
68700;SDS011;55682;51.114;5.882;2023-04-25T09:33:10;2.71;;;2.47;;
68700;SDS011;55682;51.114;5.882;2023-04-25T09:35:38;2.33;;;2.14;;
68700;SDS011;55682;51.114;5.882;2023-04-25T09:38:11;3.01;;;2.85;;
68700;SDS011;55682;51.114;5.882;2023-04-25T09:40:54;2.52;;;2.43;;
68700;SDS011;55682;51.114;5.882;2023-04-25T09:43:29;2.29;;;2.21;;
68700;SDS011;55682;51.114;5.882;2023-04-25T09:45:55;2.30;;;2.20;;
68700;SDS011;55682;51.114;5.882;2023-04-25T09:48:24;2.26;;;2.13;;
68700;SDS011;55682;51.114;5.882;2023-04-25T09:51:10;2.47;;;2.30;;
68700;SDS011;55682;51.114;5.882;2023-04-25T09:53:44;2.55;;;2.40;;
68700;SDS011;55682;51.114;5.882;2023-04-25T09:56:30;2.18;;;2.06;;
68700;SDS011;55682;51.114;5.882;2023-04-25T09:59:05;2.34;;;2.22;;
68700;SDS011;55682;51.114;5.882;2023-04-25T10:01:33;2.12;;;2.01;;
68700;SDS011;55682;51.114;5.882;2023-04-25T10:04:11;2.08;;;1.98;;
68700;SDS011;55682;51.114;5.882;2023-04-25T10:06:51;2.15;;;2.06;;
68700;SDS011;55682;51.114;5.882;2023-04-25T10:09:20;2.39;;;2.29;;
68700;SDS011;55682;51.114;5.882;2023-04-25T10:11:51;2.01;;;1.93;;
68700;SDS011;55682;51.114;5.882;2023-04-25T10:14:18;1.61;;;1.53;;
68700;SDS011;55682;51.114;5.882;2023-04-25T10:16:45;1.94;;;1.83;;
68700;SDS011;55682;51.114;5.882;2023-04-25T10:19:12;1.59;;;1.52;;
68700;SDS011;55682;51.114;5.882;2023-04-25T10:21:44;1.99;;;1.87;;
68700;SDS011;55682;51.114;5.882;2023-04-25T10:24:29;2.04;;;1.87;;
68700;SDS011;55682;51.114;5.882;2023-04-25T10:26:56;1.81;;;1.68;;
68700;SDS011;55682;51.114;5.882;2023-04-25T10:29:23;2.03;;;1.85;;
68700;SDS011;55682;51.114;5.882;2023-04-25T10:31:50;2.02;;;1.81;;
68700;SDS011;55682;51.114;5.882;2023-04-25T10:34:17;1.82;;;1.67;;
68700;SDS011;55682;51.114;5.882;2023-04-25T10:36:48;1.96;;;1.82;;
68700;SDS011;55682;51.114;5.882;2023-04-25T10:39:24;1.99;;;1.85;;
68700;SDS011;55682;51.114;5.882;2023-04-25T10:41:53;2.29;;;2.15;;
68700;SDS011;55682;51.114;5.882;2023-04-25T10:44:21;1.88;;;1.75;;
68700;SDS011;55682;51.114;5.882;2023-04-25T10:46:47;1.99;;;1.84;;
68700;SDS011;55682;51.114;5.882;2023-04-25T10:49:29;1.86;;;1.71;;
68700;SDS011;55682;51.114;5.882;2023-04-25T10:54:52;1.67;;;1.52;;
68700;SDS011;55682;51.114;5.882;2023-04-25T11:00:13;1.57;;;1.41;;
68700;SDS011;55682;51.114;5.882;2023-04-25T11:02:42;1.76;;;1.59;;
68700;SDS011;55682;51.114;5.882;2023-04-25T11:05:16;1.68;;;1.54;;
68700;SDS011;55682;51.114;5.882;2023-04-25T11:08:11;1.84;;;1.68;;
68700;SDS011;55682;51.114;5.882;2023-04-25T11:10:39;2.05;;;1.85;;
68700;SDS011;55682;51.114;5.882;2023-04-25T11:13:05;1.74;;;1.59;;
68700;SDS011;55682;51.114;5.882;2023-04-25T11:15:31;2.06;;;1.86;;
68700;SDS011;55682;51.114;5.882;2023-04-25T11:17:56;2.15;;;1.92;;
68700;SDS011;55682;51.114;5.882;2023-04-25T11:20:24;1.88;;;1.71;;
68700;SDS011;55682;51.114;5.882;2023-04-25T11:22:53;2.12;;;1.98;;
68700;SDS011;55682;51.114;5.882;2023-04-25T11:25:19;1.83;;;1.70;;
68700;SDS011;55682;51.114;5.882;2023-04-25T11:27:51;1.91;;;1.78;;
68700;SDS011;55682;51.114;5.882;2023-04-25T11:30:19;1.73;;;1.61;;
68700;SDS011;55682;51.114;5.882;2023-04-25T11:32:46;2.07;;;1.91;;
68700;SDS011;55682;51.114;5.882;2023-04-25T11:35:12;1.82;;;1.67;;
68700;SDS011;55682;51.114;5.882;2023-04-25T11:37:39;1.94;;;1.77;;
68700;SDS011;55682;51.114;5.882;2023-04-25T11:40:05;1.95;;;1.75;;
68700;SDS011;55682;51.114;5.882;2023-04-25T11:42:32;1.90;;;1.71;;
68700;SDS011;55682;51.114;5.882;2023-04-25T11:44:58;1.92;;;1.74;;
68700;SDS011;55682;51.114;5.882;2023-04-25T11:47:31;1.67;;;1.51;;
68700;SDS011;55682;51.114;5.882;2023-04-25T11:50:01;1.81;;;1.64;;
68700;SDS011;55682;51.114;5.882;2023-04-25T11:53:02;2.01;;;1.84;;
68700;SDS011;55682;51.114;5.882;2023-04-25T11:55:21;2.00;;;1.83;;
68700;SDS011;55682;51.114;5.882;2023-04-25T11:57:48;1.86;;;1.72;;
68700;SDS011;55682;51.114;5.882;2023-04-25T12:00:18;1.96;;;1.82;;
68700;SDS011;55682;51.114;5.882;2023-04-25T12:02:46;1.69;;;1.58;;
68700;SDS011;55682;51.114;5.882;2023-04-25T12:05:15;1.56;;;1.50;;
68700;SDS011;55682;51.114;5.882;2023-04-25T12:07:41;1.64;;;1.56;;
68700;SDS011;55682;51.114;5.882;2023-04-25T12:10:11;1.99;;;1.89;;
68700;SDS011;55682;51.114;5.882;2023-04-25T12:12:41;2.02;;;1.92;;
68700;SDS011;55682;51.114;5.882;2023-04-25T12:15:09;1.81;;;1.74;;
68700;SDS011;55682;51.114;5.882;2023-04-25T12:17:40;1.84;;;1.79;;
68700;SDS011;55682;51.114;5.882;2023-04-25T12:20:13;1.75;;;1.72;;
68700;SDS011;55682;51.114;5.882;2023-04-25T12:22:41;1.89;;;1.85;;
68700;SDS011;55682;51.114;5.882;2023-04-25T12:25:12;2.24;;;2.20;;
68700;SDS011;55682;51.114;5.882;2023-04-25T12:28:44;2.29;;;2.24;;
68700;SDS011;55682;51.114;5.882;2023-04-25T12:31:01;2.18;;;2.16;;
68700;SDS011;55682;51.114;5.882;2023-04-25T12:33:32;2.20;;;2.19;;
68700;SDS011;55682;51.114;5.882;2023-04-25T12:36:02;2.01;;;2.01;;
68700;SDS011;55682;51.114;5.882;2023-04-25T12:38:36;2.13;;;2.13;;
68700;SDS011;55682;51.114;5.882;2023-04-25T12:41:05;2.11;;;2.11;;
68700;SDS011;55682;51.114;5.882;2023-04-25T12:43:31;1.99;;;1.98;;
68700;SDS011;55682;51.114;5.882;2023-04-25T12:45:57;2.17;;;2.14;;
68700;SDS011;55682;51.114;5.882;2023-04-25T12:48:22;2.11;;;2.11;;
68700;SDS011;55682;51.114;5.882;2023-04-25T12:50:49;2.05;;;2.00;;
68700;SDS011;55682;51.114;5.882;2023-04-25T12:53:16;2.05;;;2.04;;
68700;SDS011;55682;51.114;5.882;2023-04-25T12:55:47;1.65;;;1.64;;
68700;SDS011;55682;51.114;5.882;2023-04-25T12:58:16;1.75;;;1.73;;
68700;SDS011;55682;51.114;5.882;2023-04-25T13:00:44;1.72;;;1.70;;
68700;SDS011;55682;51.114;5.882;2023-04-25T13:03:10;1.77;;;1.76;;
68700;SDS011;55682;51.114;5.882;2023-04-25T13:05:37;1.61;;;1.60;;
68700;SDS011;55682;51.114;5.882;2023-04-25T13:08:03;1.63;;;1.60;;
68700;SDS011;55682;51.114;5.882;2023-04-25T13:10:29;1.71;;;1.71;;
68700;SDS011;55682;51.114;5.882;2023-04-25T13:12:55;1.64;;;1.63;;
68700;SDS011;55682;51.114;5.882;2023-04-25T13:15:20;1.77;;;1.72;;
68700;SDS011;55682;51.114;5.882;2023-04-25T13:17:47;1.49;;;1.49;;
68700;SDS011;55682;51.114;5.882;2023-04-25T13:20:12;1.60;;;1.60;;
68700;SDS011;55682;51.114;5.882;2023-04-25T13:22:40;1.41;;;1.41;;
68700;SDS011;55682;51.114;5.882;2023-04-25T13:25:08;1.44;;;1.44;;
68700;SDS011;55682;51.114;5.882;2023-04-25T13:27:34;1.57;;;1.56;;
68700;SDS011;55682;51.114;5.882;2023-04-25T13:30:02;1.57;;;1.55;;
68700;SDS011;55682;51.114;5.882;2023-04-25T13:32:33;1.60;;;1.54;;
68700;SDS011;55682;51.114;5.882;2023-04-25T13:35:01;1.76;;;1.70;;
68700;SDS011;55682;51.114;5.882;2023-04-25T13:37:28;1.70;;;1.70;;
68700;SDS011;55682;51.114;5.882;2023-04-25T13:39:54;1.64;;;1.63;;
68700;SDS011;55682;51.114;5.882;2023-04-25T13:42:21;1.60;;;1.55;;
68700;SDS011;55682;51.114;5.882;2023-04-25T13:44:48;1.88;;;1.83;;
68700;SDS011;55682;51.114;5.882;2023-04-25T13:47:13;1.58;;;1.53;;
68700;SDS011;55682;51.114;5.882;2023-04-25T13:49:39;1.62;;;1.57;;
68700;SDS011;55682;51.114;5.882;2023-04-25T13:52:05;1.63;;;1.57;;
68700;SDS011;55682;51.114;5.882;2023-04-25T13:54:30;1.76;;;1.69;;
68700;SDS011;55682;51.114;5.882;2023-04-25T13:56:56;1.57;;;1.53;;
68700;SDS011;55682;51.114;5.882;2023-04-25T13:59:24;1.69;;;1.63;;
68700;SDS011;55682;51.114;5.882;2023-04-25T14:01:51;1.50;;;1.46;;
68700;SDS011;55682;51.114;5.882;2023-04-25T14:04:17;1.63;;;1.60;;
68700;SDS011;55682;51.114;5.882;2023-04-25T14:06:42;1.65;;;1.60;;
68700;SDS011;55682;51.114;5.882;2023-04-25T14:09:08;1.70;;;1.65;;
68700;SDS011;55682;51.114;5.882;2023-04-25T14:11:38;1.66;;;1.61;;
68700;SDS011;55682;51.114;5.882;2023-04-25T14:14:04;1.60;;;1.55;;
68700;SDS011;55682;51.114;5.882;2023-04-25T14:16:30;1.42;;;1.37;;
68700;SDS011;55682;51.114;5.882;2023-04-25T14:18:59;1.33;;;1.29;;
68700;SDS011;55682;51.114;5.882;2023-04-25T14:21:26;1.25;;;1.20;;
68700;SDS011;55682;51.114;5.882;2023-04-25T14:23:52;1.35;;;1.28;;
68700;SDS011;55682;51.114;5.882;2023-04-25T14:26:18;1.32;;;1.23;;
68700;SDS011;55682;51.114;5.882;2023-04-25T14:28:43;1.01;;;0.94;;
68700;SDS011;55682;51.114;5.882;2023-04-25T14:31:09;1.25;;;1.17;;
68700;SDS011;55682;51.114;5.882;2023-04-25T14:33:35;1.21;;;1.13;;
68700;SDS011;55682;51.114;5.882;2023-04-25T14:36:02;1.05;;;0.97;;
68700;SDS011;55682;51.114;5.882;2023-04-25T14:38:28;1.25;;;1.17;;
68700;SDS011;55682;51.114;5.882;2023-04-25T14:40:54;1.05;;;0.99;;
68700;SDS011;55682;51.114;5.882;2023-04-25T14:43:19;1.06;;;1.00;;
68700;SDS011;55682;51.114;5.882;2023-04-25T14:45:45;1.18;;;1.11;;
68700;SDS011;55682;51.114;5.882;2023-04-25T14:48:11;1.03;;;0.97;;
68700;SDS011;55682;51.114;5.882;2023-04-25T14:50:36;1.19;;;1.11;;
68700;SDS011;55682;51.114;5.882;2023-04-25T14:53:02;1.40;;;1.30;;
68700;SDS011;55682;51.114;5.882;2023-04-25T14:55:27;1.14;;;1.05;;
68700;SDS011;55682;51.114;5.882;2023-04-25T14:57:54;1.16;;;1.08;;
68700;SDS011;55682;51.114;5.882;2023-04-25T15:00:20;1.01;;;0.95;;
68700;SDS011;55682;51.114;5.882;2023-04-25T15:02:50;1.00;;;0.94;;
68700;SDS011;55682;51.114;5.882;2023-04-25T15:05:16;0.98;;;0.92;;
68700;SDS011;55682;51.114;5.882;2023-04-25T15:07:42;1.00;;;0.94;;